createdAt,value
2022-10-15T00:00:53.331Z,18.80
2022-10-15T00:03:20.829Z,23.15
2022-10-15T00:05:48.297Z,25.05
2022-10-15T00:08:15.670Z,21.95
2022-10-15T00:10:43.014Z,26.73
2022-10-15T00:13:10.622Z,26.77
2022-10-15T00:15:38.220Z,19.77
2022-10-15T00:18:05.702Z,24.95
2022-10-15T00:20:33.181Z,23.15
2022-10-15T00:23:00.783Z,27.25
2022-10-15T00:25:28.406Z,24.85
2022-10-15T00:27:55.877Z,21.95
2022-10-15T00:30:23.350Z,23.13
2022-10-15T00:32:50.837Z,24.55
2022-10-15T00:35:18.465Z,22.75
2022-10-15T00:37:46.276Z,24.33
2022-10-15T00:40:16.080Z,21.25
2022-10-15T00:42:43.539Z,24.35
2022-10-15T00:45:16.171Z,22.48
2022-10-15T00:47:49.043Z,21.77
2022-10-15T00:50:28.903Z,25.15
2022-10-15T00:53:03.823Z,23.25
2022-10-15T00:55:33.445Z,24.58
2022-10-15T00:58:03.626Z,21.23
2022-10-15T01:00:31.777Z,22.30
2022-10-15T01:02:59.372Z,23.25
2022-10-15T01:05:27.456Z,20.50
2022-10-15T01:07:54.817Z,21.83
2022-10-15T01:10:22.417Z,22.58
2022-10-15T01:13:12.345Z,21.23
2022-10-15T01:16:23.383Z,22.20
2022-10-15T01:19:04.905Z,19.92
2022-10-15T01:21:50.524Z,21.15
2022-10-15T01:24:39.376Z,20.63
2022-10-15T01:27:29.036Z,20.75
2022-10-15T01:30:21.354Z,17.63
2022-10-15T01:32:54.952Z,20.13
2022-10-15T01:35:26.636Z,22.10
2022-10-15T01:38:21.119Z,24.52
2022-10-15T01:41:01.200Z,24.30
2022-10-15T01:44:06.595Z,22.30
2022-10-15T01:46:55.680Z,21.98
2022-10-15T01:49:26.436Z,26.73
2022-10-15T01:51:54.720Z,20.58
2022-10-15T01:54:24.604Z,24.15
2022-10-15T01:56:52.803Z,20.75
2022-10-15T01:59:23.284Z,23.25
2022-10-15T02:01:51.018Z,22.58
2022-10-15T02:04:23.770Z,22.80
2022-10-15T02:07:14.421Z,21.88
2022-10-15T02:10:05.057Z,24.23
2022-10-15T02:12:42.495Z,24.08
2022-10-15T02:15:36.631Z,22.67
2022-10-15T02:18:19.586Z,22.02
2022-10-15T02:21:48.174Z,24.40
2022-10-15T02:24:24.640Z,21.00
2022-10-15T02:26:54.748Z,23.98
2022-10-15T02:29:24.155Z,21.20
2022-10-15T02:31:52.959Z,24.67
2022-10-15T02:34:22.230Z,21.75
2022-10-15T02:36:50.192Z,23.30
2022-10-15T02:39:22.487Z,22.23
2022-10-15T02:41:50.689Z,21.88
2022-10-15T02:44:18.399Z,23.88
2022-10-15T02:46:46.004Z,21.40
2022-10-15T02:49:13.479Z,20.95
2022-10-15T02:51:41.205Z,21.05
2022-10-15T02:54:08.684Z,25.77
2022-10-15T02:56:36.293Z,19.45
2022-10-15T02:59:06.050Z,24.55
2022-10-15T03:01:34.491Z,21.27
2022-10-15T03:04:02.448Z,23.45
2022-10-15T03:06:29.814Z,28.92
2022-10-15T03:08:57.300Z,23.23
2022-10-15T03:11:24.652Z,22.05
2022-10-15T03:13:52.257Z,19.67
2022-10-15T03:16:19.744Z,22.95
2022-10-15T03:18:47.346Z,21.77
2022-10-15T03:21:14.702Z,22.60
2022-10-15T03:23:42.666Z,19.33
2022-10-15T03:26:10.040Z,21.92
2022-10-15T03:28:37.554Z,21.05
2022-10-15T03:31:05.122Z,18.38
2022-10-15T03:33:32.708Z,23.60
2022-10-15T03:36:00.554Z,20.67
2022-10-15T03:38:28.277Z,22.55
2022-10-15T03:40:55.654Z,23.23
2022-10-15T03:43:26.475Z,22.30
2022-10-15T03:45:53.960Z,21.35
2022-10-15T03:48:22.517Z,20.52
2022-10-15T03:50:50.019Z,19.92
2022-10-15T03:53:17.599Z,20.60
2022-10-15T03:55:45.085Z,21.60
2022-10-15T03:58:12.595Z,17.75
2022-10-15T04:00:44.472Z,23.60
2022-10-15T04:03:12.104Z,19.80
2022-10-15T04:05:39.692Z,21.42
2022-10-15T04:08:07.065Z,21.50
2022-10-15T04:10:34.776Z,19.83
2022-10-15T04:13:02.143Z,19.60
2022-10-15T04:15:29.502Z,20.58
2022-10-15T04:17:56.887Z,17.40
2022-10-15T04:20:24.360Z,20.42
2022-10-15T04:22:51.955Z,23.45
2022-10-15T04:25:19.320Z,20.60
2022-10-15T04:27:47.157Z,17.70
2022-10-15T04:30:14.755Z,21.38
2022-10-15T04:32:42.246Z,20.38
2022-10-15T04:35:10.088Z,19.02
2022-10-15T04:37:37.554Z,19.05
2022-10-15T04:40:05.872Z,19.58
2022-10-15T04:42:33.362Z,27.10
2022-10-15T04:45:00.963Z,17.30
2022-10-15T04:47:28.316Z,20.10
2022-10-15T04:49:55.679Z,23.40
2022-10-15T04:52:23.521Z,19.52
2022-10-15T04:54:51.009Z,20.75
2022-10-15T04:57:18.483Z,19.35
2022-10-15T04:59:46.207Z,20.33
2022-10-15T05:02:13.590Z,20.15
2022-10-15T05:04:41.178Z,21.85
2022-10-15T05:07:08.532Z,16.63
2022-10-15T05:09:37.283Z,19.90
2022-10-15T05:12:04.946Z,20.83
2022-10-15T05:14:32.412Z,18.40
2022-10-15T05:17:00.351Z,18.33
2022-10-15T05:19:27.758Z,21.50
2022-10-15T05:21:55.232Z,21.00
2022-10-15T05:24:22.705Z,18.55
2022-10-15T05:26:50.182Z,19.02
2022-10-15T05:29:17.665Z,21.38
2022-10-15T05:31:45.029Z,17.17
2022-10-15T05:34:12.883Z,23.42
2022-10-15T05:36:40.477Z,17.88
2022-10-15T05:39:10.720Z,21.33
2022-10-15T05:41:38.200Z,16.98
2022-10-15T05:44:05.675Z,18.58
2022-10-15T05:46:33.276Z,19.90
2022-10-15T05:49:00.890Z,16.42
2022-10-15T05:51:28.836Z,20.30
2022-10-15T05:53:57.041Z,17.52
2022-10-15T05:56:25.001Z,17.58
2022-10-15T05:58:52.607Z,17.60
2022-10-15T06:01:20.327Z,16.83
2022-10-15T06:03:48.051Z,14.57
2022-10-15T06:06:21.071Z,16.52
2022-10-15T06:08:50.221Z,18.50
2022-10-15T06:11:17.937Z,17.92
2022-10-15T06:13:46.374Z,19.85
2022-10-15T06:16:18.020Z,26.70
2022-10-15T06:18:48.536Z,19.58
2022-10-15T06:21:16.016Z,15.85
2022-10-15T06:23:43.378Z,15.52
2022-10-15T06:26:11.101Z,20.23
2022-10-15T06:28:39.512Z,17.15
2022-10-15T06:31:07.515Z,17.42
2022-10-15T06:33:36.129Z,15.60
2022-10-15T06:36:09.069Z,21.20
2022-10-15T06:38:37.395Z,14.13
2022-10-15T06:41:05.472Z,15.73
2022-10-15T06:43:35.184Z,15.65
2022-10-15T06:46:04.874Z,17.52
2022-10-15T06:48:32.959Z,18.58
2022-10-15T06:51:01.405Z,15.63
2022-10-15T06:53:29.971Z,17.35
2022-10-15T06:55:58.652Z,16.65
2022-10-15T06:58:26.844Z,17.48
2022-10-15T07:00:54.209Z,15.02
2022-10-15T07:03:21.848Z,16.40
2022-10-15T07:05:49.288Z,17.52
2022-10-15T07:08:19.231Z,18.98
2022-10-15T07:10:47.425Z,20.33
2022-10-15T07:13:14.728Z,18.70
2022-10-15T07:15:42.336Z,18.17
2022-10-15T07:18:10.057Z,17.60
2022-10-15T07:20:37.547Z,19.98
2022-10-15T07:23:05.019Z,14.90
2022-10-15T07:25:32.977Z,17.35
2022-10-15T07:28:00.704Z,14.75
2022-10-15T07:30:28.598Z,17.02
2022-10-15T07:32:57.352Z,14.98
2022-10-15T07:35:25.784Z,19.67
2022-10-15T07:37:53.510Z,15.98
2022-10-15T07:40:21.116Z,17.95
2022-10-15T07:42:55.915Z,17.80
2022-10-15T07:45:24.235Z,15.15
2022-10-15T07:47:52.192Z,20.75
2022-10-15T07:50:20.039Z,14.85
2022-10-15T07:52:47.429Z,17.55
2022-10-15T07:55:14.878Z,14.88
2022-10-15T07:57:42.364Z,15.27
2022-10-15T08:00:10.364Z,12.75
2022-10-15T08:02:37.937Z,12.70
2022-10-15T08:05:05.644Z,14.95
2022-10-15T08:07:33.372Z,14.52
2022-10-15T08:10:01.095Z,13.55
2022-10-15T08:12:28.577Z,16.65
2022-10-15T08:14:56.053Z,13.02
2022-10-15T08:17:23.417Z,14.00
2022-10-15T08:19:51.031Z,12.85
2022-10-15T08:22:18.658Z,12.98
2022-10-15T08:24:46.221Z,14.02
2022-10-15T08:27:14.342Z,13.43
2022-10-15T08:29:42.029Z,16.08
2022-10-15T08:32:09.871Z,15.23
2022-10-15T08:34:37.348Z,12.00
2022-10-15T08:37:05.228Z,14.45
2022-10-15T08:39:32.682Z,12.65
2022-10-15T08:42:06.153Z,16.63
2022-10-15T08:44:46.234Z,12.77
2022-10-15T08:47:47.796Z,10.93
2022-10-15T08:50:41.437Z,11.90
2022-10-15T08:53:14.926Z,10.48
2022-10-15T08:55:45.064Z,14.43
2022-10-15T08:58:44.686Z,10.73
2022-10-15T09:01:25.126Z,9.93
2022-10-15T09:04:03.762Z,10.68
2022-10-15T09:06:35.210Z,9.68
2022-10-15T09:09:31.029Z,10.60
2022-10-15T09:12:38.088Z,17.70
2022-10-15T09:15:12.768Z,13.45
2022-10-15T09:17:52.145Z,12.70
2022-10-15T09:20:39.918Z,13.35
2022-10-15T09:23:18.302Z,13.30
2022-10-15T09:25:50.342Z,12.27
2022-10-15T09:28:20.643Z,12.63
2022-10-15T09:30:51.660Z,14.00
2022-10-15T09:33:42.070Z,10.93
2022-10-15T09:36:15.461Z,10.90
2022-10-15T09:38:45.794Z,11.75
2022-10-15T09:41:32.839Z,11.70
2022-10-15T09:44:03.632Z,10.75
2022-10-15T09:46:33.450Z,8.95
2022-10-15T09:49:00.798Z,10.98
2022-10-15T09:52:07.756Z,11.30
2022-10-15T09:55:11.004Z,11.00
2022-10-15T09:57:39.819Z,9.35
2022-10-15T10:00:13.676Z,11.77
2022-10-15T10:02:41.795Z,10.02
2022-10-15T10:05:39.333Z,7.90
2022-10-15T10:08:31.898Z,7.30
2022-10-15T10:11:02.489Z,12.05
2022-10-15T10:13:40.123Z,7.97
2022-10-15T10:16:10.679Z,7.47
2022-10-15T10:18:38.740Z,5.95
2022-10-15T10:21:31.180Z,8.68
2022-10-15T10:24:19.421Z,7.78
2022-10-15T10:26:47.751Z,6.75
2022-10-15T10:29:33.574Z,6.80
2022-10-15T10:32:27.460Z,5.70
2022-10-15T10:34:55.061Z,9.25
2022-10-15T10:37:23.188Z,6.63
2022-10-15T10:39:59.029Z,7.03
2022-10-15T10:42:34.677Z,5.35
2022-10-15T10:45:18.864Z,7.43
2022-10-15T10:47:46.676Z,8.68
2022-10-15T10:50:32.878Z,6.57
2022-10-15T10:53:37.086Z,7.57
2022-10-15T10:56:05.404Z,11.43
2022-10-15T10:58:34.247Z,6.50
2022-10-15T11:01:01.731Z,5.88
2022-10-15T11:03:37.694Z,5.18
2022-10-15T11:06:08.040Z,6.05
2022-10-15T11:08:47.531Z,6.32
2022-10-15T11:11:24.249Z,6.65
2022-10-15T11:14:17.650Z,6.13
2022-10-15T11:16:58.338Z,6.10
2022-10-15T11:22:28.947Z,6.95
2022-10-15T11:25:28.595Z,5.32
2022-10-15T11:28:08.428Z,5.53
2022-10-15T11:31:06.506Z,5.28
2022-10-15T11:34:15.384Z,4.72
2022-10-15T11:37:07.585Z,4.43
2022-10-15T11:39:50.302Z,4.10
2022-10-15T11:42:29.670Z,6.07
2022-10-15T11:45:15.635Z,7.57
2022-10-15T11:48:01.433Z,4.88
2022-10-15T11:53:59.802Z,4.72
2022-10-15T11:56:36.346Z,7.28
2022-10-15T11:59:34.148Z,4.35
2022-10-15T12:02:06.176Z,5.60
2022-10-15T12:04:41.319Z,3.88
2022-10-15T12:09:41.939Z,4.18
2022-10-15T12:12:36.051Z,10.95
2022-10-15T12:15:22.366Z,5.32
2022-10-15T12:18:22.252Z,4.72
2022-10-15T12:20:49.858Z,8.60
2022-10-15T12:23:39.059Z,4.50
2022-10-15T12:26:24.799Z,3.22
2022-10-15T12:31:20.940Z,3.40
2022-10-15T12:33:52.501Z,6.13
2022-10-15T12:36:19.748Z,7.07
2022-10-15T12:39:00.669Z,5.50
2022-10-15T12:41:40.867Z,4.00
2022-10-15T12:44:34.516Z,4.10
2022-10-15T12:47:02.105Z,3.85
2022-10-15T12:49:32.593Z,5.47
2022-10-15T12:52:02.018Z,3.65
2022-10-15T12:54:35.233Z,3.80
2022-10-15T12:57:12.441Z,6.78
2022-10-15T12:59:46.161Z,3.22
2022-10-15T13:02:39.682Z,4.57
2022-10-15T13:05:12.587Z,7.70
2022-10-15T13:07:41.124Z,5.35
2022-10-15T13:10:29.129Z,4.60
2022-10-15T13:13:04.292Z,3.90
2022-10-15T13:15:32.972Z,5.53
2022-10-15T13:18:06.814Z,5.15
2022-10-15T13:20:37.285Z,4.68
2022-10-15T13:23:29.395Z,7.53
2022-10-15T13:26:13.293Z,4.07
2022-10-15T13:28:42.185Z,4.53
2022-10-15T13:31:20.582Z,2.60
2022-10-15T13:33:52.068Z,2.47
2022-10-15T13:36:26.152Z,3.85
2022-10-15T13:39:00.415Z,2.55
2022-10-15T13:41:31.904Z,4.85
2022-10-15T13:44:01.084Z,3.80
2022-10-15T13:46:34.311Z,4.45
2022-10-15T13:49:10.794Z,2.22
2022-10-15T13:51:40.797Z,8.23
2022-10-15T13:54:11.272Z,5.65
2022-10-15T13:56:47.790Z,2.25
2022-10-15T13:59:18.360Z,4.57
2022-10-15T14:02:00.978Z,2.92
2022-10-15T14:04:29.695Z,4.32
2022-10-15T14:07:03.144Z,2.47
2022-10-15T14:09:36.253Z,5.50
2022-10-15T14:12:07.925Z,2.72
2022-10-15T14:14:47.049Z,3.30
2022-10-15T14:17:17.682Z,3.90
2022-10-15T14:20:22.173Z,3.95
2022-10-15T14:22:49.328Z,2.85
2022-10-15T14:25:22.475Z,2.17
2022-10-15T14:27:50.052Z,3.80
2022-10-15T14:30:35.892Z,2.67
2022-10-15T14:33:03.625Z,2.45
2022-10-15T14:35:34.338Z,2.78
2022-10-15T14:38:14.435Z,3.15
2022-10-15T14:40:42.025Z,2.72
2022-10-15T14:43:17.451Z,2.28
2022-10-15T14:45:51.032Z,2.13
2022-10-15T14:48:24.986Z,2.95
2022-10-15T14:50:53.307Z,3.47
2022-10-15T14:53:24.876Z,5.78
2022-10-15T14:55:56.558Z,3.05
2022-10-15T14:58:25.354Z,2.45
2022-10-15T15:01:08.921Z,8.85
2022-10-15T15:03:42.037Z,2.92
2022-10-15T15:06:10.022Z,5.10
2022-10-15T15:08:37.957Z,3.60
2022-10-15T15:11:07.846Z,5.00
2022-10-15T15:13:41.204Z,5.22
2022-10-15T15:16:16.367Z,3.10
2022-10-15T15:18:46.396Z,3.00
2022-10-15T15:21:17.205Z,3.85
2022-10-15T15:23:44.842Z,2.50
2022-10-15T15:26:12.541Z,2.42
2022-10-15T15:28:40.049Z,2.72
2022-10-15T15:31:12.540Z,2.67
2022-10-15T15:33:41.460Z,1.65
2022-10-15T15:36:20.705Z,4.70
2022-10-15T15:38:51.342Z,4.20
2022-10-15T15:41:22.913Z,4.38
2022-10-15T15:43:50.965Z,2.83
2022-10-15T15:46:18.689Z,4.20
2022-10-15T15:48:46.408Z,2.10
2022-10-15T15:51:26.835Z,2.20
2022-10-15T15:53:55.279Z,2.03
2022-10-15T15:56:22.997Z,3.70
2022-10-15T15:58:51.189Z,2.60
2022-10-15T16:01:19.214Z,4.55
2022-10-15T16:03:47.121Z,4.88
2022-10-15T16:06:14.596Z,2.25
2022-10-15T16:08:42.090Z,3.63
2022-10-15T16:11:09.441Z,5.63
2022-10-15T16:13:36.801Z,3.05
2022-10-15T16:16:05.249Z,5.15
2022-10-15T16:18:32.843Z,5.20
2022-10-15T16:21:00.206Z,5.22
2022-10-15T16:23:27.575Z,8.73
2022-10-15T16:25:57.578Z,5.78
2022-10-15T16:28:25.229Z,6.70
2022-10-15T16:30:52.651Z,5.82
2022-10-15T16:33:20.147Z,5.80
2022-10-15T16:35:53.853Z,4.53
2022-10-15T16:38:21.346Z,5.90
2022-10-15T16:40:48.825Z,7.40
2022-10-15T16:43:16.178Z,5.60
2022-10-15T16:45:43.546Z,5.00
2022-10-15T16:48:11.031Z,4.45
2022-10-15T16:50:38.632Z,5.88
2022-10-15T16:53:06.120Z,17.65
2022-10-15T16:55:34.071Z,40.13
2022-10-15T16:58:01.675Z,34.85
2022-10-15T17:00:29.244Z,27.15
2022-10-15T17:02:56.755Z,14.07
2022-10-15T17:05:24.127Z,24.90
2022-10-15T17:07:51.597Z,25.85
2022-10-15T17:10:25.602Z,16.20
2022-10-15T17:12:53.526Z,16.65
2022-10-15T17:15:21.002Z,13.48
2022-10-15T17:17:48.966Z,12.65
2022-10-15T17:20:16.446Z,10.63
2022-10-15T17:22:43.929Z,14.95
2022-10-15T17:25:11.407Z,9.60
2022-10-15T17:27:38.912Z,8.38
2022-10-15T17:30:06.976Z,10.77
2022-10-15T17:32:34.694Z,9.90
2022-10-15T17:35:04.134Z,8.65
2022-10-15T17:37:32.068Z,13.63
2022-10-15T17:39:59.969Z,9.43
2022-10-15T17:42:27.782Z,8.05
2022-10-15T17:44:55.343Z,16.90
2022-10-15T17:47:23.064Z,9.13
2022-10-15T17:49:50.790Z,18.85
2022-10-15T17:52:18.510Z,10.15
2022-10-15T17:54:46.109Z,9.98
2022-10-15T17:57:13.590Z,12.88
2022-10-15T17:59:41.076Z,9.00
2022-10-15T18:02:10.318Z,11.18
2022-10-15T18:04:39.157Z,11.07
2022-10-15T18:07:06.878Z,11.20
2022-10-15T18:09:34.243Z,10.88
2022-10-15T18:12:02.215Z,9.85
2022-10-15T18:14:30.175Z,8.02
2022-10-15T18:16:58.365Z,9.48
2022-10-15T18:19:26.999Z,11.48
2022-10-15T18:21:55.714Z,11.13
2022-10-15T18:24:26.339Z,6.50
2022-10-15T18:26:54.192Z,8.50
2022-10-15T18:29:22.493Z,12.60
2022-10-15T18:31:54.814Z,7.63
2022-10-15T18:34:24.652Z,7.80
2022-10-15T18:36:52.136Z,6.63
2022-10-15T18:39:19.617Z,7.82
2022-10-15T18:41:46.986Z,8.32
2022-10-15T18:44:16.787Z,16.40
2022-10-15T18:46:45.669Z,7.63
2022-10-15T18:49:15.315Z,9.07
2022-10-15T18:51:46.034Z,7.30
2022-10-15T18:54:14.122Z,8.93
2022-10-15T18:56:41.720Z,7.90
2022-10-15T18:59:09.311Z,9.90
2022-10-15T19:01:39.261Z,7.53
2022-10-15T19:04:09.314Z,8.60
2022-10-15T19:06:39.921Z,7.13
2022-10-15T19:09:12.600Z,8.50
2022-10-15T19:11:41.981Z,6.47
2022-10-15T19:14:09.582Z,7.60
2022-10-15T19:16:37.519Z,8.57
2022-10-15T19:19:05.726Z,6.07
2022-10-15T19:21:33.204Z,7.40
2022-10-15T19:24:00.687Z,6.10
2022-10-15T19:26:28.651Z,10.05
2022-10-15T19:28:57.394Z,6.25
2022-10-15T19:31:29.135Z,7.95
2022-10-15T19:34:00.337Z,7.80
2022-10-15T19:36:34.292Z,8.07
2022-10-15T19:39:04.058Z,10.75
2022-10-15T19:41:31.539Z,6.28
2022-10-15T19:43:59.142Z,10.95
2022-10-15T19:46:26.986Z,6.10
2022-10-15T19:48:54.341Z,6.63
2022-10-15T19:51:22.302Z,8.60
2022-10-15T19:53:54.587Z,9.27
2022-10-15T19:56:22.308Z,4.40
2022-10-15T19:58:55.910Z,7.40
2022-10-15T20:01:23.329Z,6.28
2022-10-15T20:03:51.111Z,5.93
2022-10-15T20:06:19.195Z,5.00
2022-10-15T20:08:47.159Z,4.65
2022-10-15T20:11:14.633Z,6.60
2022-10-15T20:13:41.997Z,5.20
2022-10-15T20:16:14.277Z,13.18
2022-10-15T20:18:42.614Z,4.43
2022-10-15T20:21:11.893Z,4.90
2022-10-15T20:23:40.568Z,5.80
2022-10-15T20:26:10.808Z,6.25
2022-10-15T20:28:40.275Z,5.13
2022-10-15T20:31:12.852Z,4.18
2022-10-15T20:33:41.170Z,5.60
2022-10-15T20:36:23.447Z,5.18
2022-10-15T20:38:52.604Z,4.43
2022-10-15T20:41:20.302Z,4.72
2022-10-15T20:43:55.586Z,4.22
2022-10-15T20:46:27.500Z,7.15
2022-10-15T20:48:56.277Z,5.50
2022-10-15T20:51:27.621Z,4.75
2022-10-15T20:53:58.583Z,4.72
2022-10-15T20:56:26.074Z,4.32
2022-10-15T20:58:53.441Z,7.28
2022-10-15T21:01:21.066Z,4.20
2022-10-15T21:03:48.753Z,5.88
2022-10-15T21:06:16.280Z,5.25
2022-10-15T21:08:43.718Z,7.78
2022-10-15T21:11:11.194Z,6.13
2022-10-15T21:13:38.680Z,6.72
2022-10-15T21:16:07.239Z,5.47
2022-10-15T21:18:36.165Z,6.65
2022-10-15T21:21:06.062Z,6.20
2022-10-15T21:23:33.765Z,6.53
2022-10-15T21:26:07.964Z,5.28
2022-10-15T21:28:36.381Z,7.78
2022-10-15T21:31:15.774Z,7.88
2022-10-15T21:33:43.968Z,6.70
2022-10-15T21:36:22.611Z,6.80
2022-10-15T21:39:07.009Z,5.90
2022-10-15T21:41:37.269Z,6.18
2022-10-15T21:44:06.546Z,5.38
2022-10-15T21:46:34.618Z,5.75
2022-10-15T21:49:03.535Z,7.75
2022-10-15T21:51:32.582Z,5.15
2022-10-15T21:54:01.072Z,5.57
2022-10-15T21:56:28.760Z,5.75
2022-10-15T21:58:56.598Z,6.45
2022-10-15T22:01:26.431Z,6.60
2022-10-15T22:04:01.650Z,4.95
2022-10-15T22:06:29.830Z,4.35
2022-10-15T22:08:57.332Z,4.90
2022-10-15T22:11:30.079Z,6.93
2022-10-15T22:14:00.093Z,5.13
2022-10-15T22:16:28.534Z,5.32
2022-10-15T22:18:57.080Z,4.43
2022-10-15T22:21:25.888Z,4.97
2022-10-15T22:23:54.952Z,4.22
2022-10-15T22:26:25.645Z,5.22
2022-10-15T22:28:54.898Z,5.55
2022-10-15T22:31:23.011Z,7.38
2022-10-15T22:33:50.644Z,4.00
2022-10-15T22:36:26.783Z,3.67
2022-10-15T22:39:01.740Z,6.85
2022-10-15T22:41:31.173Z,3.95
2022-10-15T22:43:59.136Z,4.55
2022-10-15T22:46:27.108Z,3.85
2022-10-15T22:48:55.068Z,4.72
2022-10-15T22:51:22.560Z,5.47
2022-10-15T22:53:50.027Z,4.90
2022-10-15T22:56:18.834Z,6.68
2022-10-15T22:58:46.671Z,5.03
2022-10-15T23:01:21.888Z,4.43
2022-10-15T23:03:51.842Z,4.57
2022-10-15T23:06:20.389Z,5.13
2022-10-15T23:08:47.888Z,6.65
2022-10-15T23:11:20.509Z,3.35
2022-10-15T23:13:51.838Z,3.58
2022-10-15T23:16:29.402Z,4.90
2022-10-15T23:19:02.398Z,5.30
2022-10-15T23:21:36.722Z,6.03
2022-10-15T23:24:05.168Z,3.75
2022-10-15T23:26:32.781Z,3.97
2022-10-15T23:29:01.383Z,5.28
2022-10-15T23:31:31.563Z,6.18
2022-10-15T23:34:00.254Z,3.67
2022-10-15T23:36:29.411Z,3.97
2022-10-15T23:39:02.420Z,5.00
2022-10-15T23:41:30.398Z,3.38
2022-10-15T23:43:58.338Z,4.10
2022-10-15T23:46:26.069Z,4.75
2022-10-15T23:48:53.778Z,4.80
2022-10-15T23:51:26.535Z,4.43
2022-10-15T23:53:56.073Z,5.70
2022-10-15T23:56:23.671Z,3.35
2022-10-15T23:58:52.706Z,3.90
